sensor_id;sensor_type;location;lat;lon;timestamp;P1;durP1;ratioP1;P2;durP2;ratioP2
76850;SDS011;65824;43.726;20.692;2024-01-15T00:00:42;358.40;;;151.45;;
76850;SDS011;65824;43.726;20.692;2024-01-15T00:03:07;351.45;;;155.02;;
76850;SDS011;65824;43.726;20.692;2024-01-15T00:05:34;339.38;;;143.30;;
76850;SDS011;65824;43.726;20.692;2024-01-15T00:08:00;300.75;;;133.73;;
76850;SDS011;65824;43.726;20.692;2024-01-15T00:10:25;290.02;;;126.72;;
76850;SDS011;65824;43.726;20.692;2024-01-15T00:12:52;294.58;;;126.93;;
76850;SDS011;65824;43.726;20.692;2024-01-15T00:15:17;291.05;;;121.25;;
76850;SDS011;65824;43.726;20.692;2024-01-15T00:17:44;274.45;;;113.30;;
76850;SDS011;65824;43.726;20.692;2024-01-15T00:20:09;274.90;;;116.30;;
76850;SDS011;65824;43.726;20.692;2024-01-15T00:22:35;279.85;;;120.22;;
76850;SDS011;65824;43.726;20.692;2024-01-15T00:25:02;293.30;;;127.10;;
76850;SDS011;65824;43.726;20.692;2024-01-15T00:27:28;349.58;;;149.57;;
76850;SDS011;65824;43.726;20.692;2024-01-15T00:29:54;366.67;;;154.73;;
76850;SDS011;65824;43.726;20.692;2024-01-15T00:32:22;354.40;;;147.70;;
76850;SDS011;65824;43.726;20.692;2024-01-15T00:34:47;330.52;;;139.80;;
76850;SDS011;65824;43.726;20.692;2024-01-15T00:37:16;315.90;;;132.57;;
76850;SDS011;65824;43.726;20.692;2024-01-15T00:39:41;306.40;;;129.30;;
76850;SDS011;65824;43.726;20.692;2024-01-15T00:42:07;306.38;;;131.00;;
76850;SDS011;65824;43.726;20.692;2024-01-15T00:44:33;305.75;;;129.55;;
76850;SDS011;65824;43.726;20.692;2024-01-15T00:46:58;297.20;;;124.47;;
76850;SDS011;65824;43.726;20.692;2024-01-15T00:49:24;303.23;;;125.32;;
76850;SDS011;65824;43.726;20.692;2024-01-15T00:51:52;292.85;;;124.20;;
76850;SDS011;65824;43.726;20.692;2024-01-15T00:54:17;292.13;;;124.63;;
76850;SDS011;65824;43.726;20.692;2024-01-15T00:56:42;293.75;;;125.50;;
76850;SDS011;65824;43.726;20.692;2024-01-15T00:59:08;285.88;;;117.72;;
76850;SDS011;65824;43.726;20.692;2024-01-15T01:01:35;276.23;;;117.20;;
76850;SDS011;65824;43.726;20.692;2024-01-15T01:04:02;291.63;;;118.43;;
76850;SDS011;65824;43.726;20.692;2024-01-15T01:06:29;292.95;;;123.88;;
76850;SDS011;65824;43.726;20.692;2024-01-15T01:08:55;291.40;;;123.10;;
76850;SDS011;65824;43.726;20.692;2024-01-15T01:11:21;276.77;;;119.72;;
76850;SDS011;65824;43.726;20.692;2024-01-15T01:13:47;293.08;;;119.13;;
76850;SDS011;65824;43.726;20.692;2024-01-15T01:16:13;238.60;;;98.70;;
76850;SDS011;65824;43.726;20.692;2024-01-15T01:18:39;246.27;;;105.35;;
76850;SDS011;65824;43.726;20.692;2024-01-15T01:21:05;271.02;;;109.97;;
76850;SDS011;65824;43.726;20.692;2024-01-15T01:23:31;287.67;;;121.13;;
76850;SDS011;65824;43.726;20.692;2024-01-15T01:25:57;339.92;;;140.75;;
76850;SDS011;65824;43.726;20.692;2024-01-15T01:28:23;344.10;;;142.30;;
76850;SDS011;65824;43.726;20.692;2024-01-15T01:30:49;350.88;;;146.95;;
76850;SDS011;65824;43.726;20.692;2024-01-15T01:33:14;357.05;;;142.48;;
76850;SDS011;65824;43.726;20.692;2024-01-15T01:35:41;328.15;;;132.15;;
76850;SDS011;65824;43.726;20.692;2024-01-15T01:38:08;330.73;;;133.63;;
76850;SDS011;65824;43.726;20.692;2024-01-15T01:40:34;326.88;;;129.77;;
76850;SDS011;65824;43.726;20.692;2024-01-15T01:43:00;334.05;;;128.43;;
76850;SDS011;65824;43.726;20.692;2024-01-15T01:45:25;337.95;;;130.80;;
76850;SDS011;65824;43.726;20.692;2024-01-15T01:47:50;318.00;;;130.68;;
76850;SDS011;65824;43.726;20.692;2024-01-15T01:50:21;318.85;;;123.10;;
76850;SDS011;65824;43.726;20.692;2024-01-15T01:52:47;289.90;;;122.05;;
76850;SDS011;65824;43.726;20.692;2024-01-15T01:55:14;273.80;;;115.68;;
76850;SDS011;65824;43.726;20.692;2024-01-15T01:57:41;253.25;;;103.28;;
76850;SDS011;65824;43.726;20.692;2024-01-15T02:00:07;233.80;;;101.90;;
76850;SDS011;65824;43.726;20.692;2024-01-15T02:02:33;255.70;;;100.75;;
76850;SDS011;65824;43.726;20.692;2024-01-15T02:05:00;237.70;;;100.18;;
76850;SDS011;65824;43.726;20.692;2024-01-15T02:07:25;253.30;;;100.93;;
76850;SDS011;65824;43.726;20.692;2024-01-15T02:09:52;235.98;;;102.95;;
76850;SDS011;65824;43.726;20.692;2024-01-15T02:12:18;266.60;;;111.57;;
76850;SDS011;65824;43.726;20.692;2024-01-15T02:14:44;267.35;;;111.85;;
76850;SDS011;65824;43.726;20.692;2024-01-15T02:17:10;276.60;;;114.93;;
76850;SDS011;65824;43.726;20.692;2024-01-15T02:19:38;250.45;;;107.45;;
76850;SDS011;65824;43.726;20.692;2024-01-15T02:22:05;225.80;;;95.13;;
76850;SDS011;65824;43.726;20.692;2024-01-15T02:24:31;228.73;;;96.55;;
76850;SDS011;65824;43.726;20.692;2024-01-15T02:26:58;216.40;;;90.13;;
76850;SDS011;65824;43.726;20.692;2024-01-15T02:29:24;211.50;;;86.13;;
76850;SDS011;65824;43.726;20.692;2024-01-15T02:31:49;234.98;;;92.55;;
76850;SDS011;65824;43.726;20.692;2024-01-15T02:34:16;245.32;;;99.10;;
76850;SDS011;65824;43.726;20.692;2024-01-15T02:36:43;248.40;;;99.78;;
76850;SDS011;65824;43.726;20.692;2024-01-15T02:39:08;232.85;;;90.22;;
76850;SDS011;65824;43.726;20.692;2024-01-15T02:41:34;236.23;;;87.47;;
76850;SDS011;65824;43.726;20.692;2024-01-15T02:44:01;251.32;;;94.28;;
76850;SDS011;65824;43.726;20.692;2024-01-15T02:46:26;241.48;;;96.93;;
76850;SDS011;65824;43.726;20.692;2024-01-15T02:48:52;247.55;;;98.10;;
76850;SDS011;65824;43.726;20.692;2024-01-15T02:51:18;270.00;;;100.70;;
76850;SDS011;65824;43.726;20.692;2024-01-15T02:53:43;237.85;;;91.68;;
76850;SDS011;65824;43.726;20.692;2024-01-15T02:56:08;233.93;;;90.15;;
76850;SDS011;65824;43.726;20.692;2024-01-15T02:58:34;225.23;;;89.18;;
76850;SDS011;65824;43.726;20.692;2024-01-15T03:01:00;218.35;;;86.88;;
76850;SDS011;65824;43.726;20.692;2024-01-15T03:03:25;214.00;;;86.63;;
76850;SDS011;65824;43.726;20.692;2024-01-15T03:05:54;200.00;;;81.35;;
76850;SDS011;65824;43.726;20.692;2024-01-15T03:08:19;199.00;;;80.80;;
76850;SDS011;65824;43.726;20.692;2024-01-15T03:10:45;204.05;;;81.13;;
76850;SDS011;65824;43.726;20.692;2024-01-15T03:13:10;190.10;;;80.47;;
76850;SDS011;65824;43.726;20.692;2024-01-15T03:15:36;188.05;;;77.45;;
76850;SDS011;65824;43.726;20.692;2024-01-15T03:18:04;190.00;;;79.47;;
76850;SDS011;65824;43.726;20.692;2024-01-15T03:20:31;206.50;;;79.32;;
76850;SDS011;65824;43.726;20.692;2024-01-15T03:22:56;203.63;;;84.93;;
76850;SDS011;65824;43.726;20.692;2024-01-15T03:25:23;196.38;;;83.40;;
76850;SDS011;65824;43.726;20.692;2024-01-15T03:27:48;211.23;;;85.43;;
76850;SDS011;65824;43.726;20.692;2024-01-15T03:30:15;209.85;;;84.22;;
76850;SDS011;65824;43.726;20.692;2024-01-15T03:32:40;212.65;;;87.03;;
76850;SDS011;65824;43.726;20.692;2024-01-15T03:35:06;206.60;;;85.68;;
76850;SDS011;65824;43.726;20.692;2024-01-15T03:37:32;199.68;;;84.15;;
76850;SDS011;65824;43.726;20.692;2024-01-15T03:39:58;210.52;;;85.40;;
76850;SDS011;65824;43.726;20.692;2024-01-15T03:42:24;220.00;;;91.05;;
76850;SDS011;65824;43.726;20.692;2024-01-15T03:44:50;203.27;;;88.97;;
76850;SDS011;65824;43.726;20.692;2024-01-15T03:47:15;218.00;;;91.32;;
76850;SDS011;65824;43.726;20.692;2024-01-15T03:49:43;206.80;;;91.07;;
76850;SDS011;65824;43.726;20.692;2024-01-15T03:52:09;193.07;;;79.40;;
76850;SDS011;65824;43.726;20.692;2024-01-15T03:54:34;194.05;;;77.95;;
76850;SDS011;65824;43.726;20.692;2024-01-15T03:57:02;173.23;;;72.50;;
76850;SDS011;65824;43.726;20.692;2024-01-15T03:59:31;167.00;;;65.63;;
76850;SDS011;65824;43.726;20.692;2024-01-15T04:01:58;151.27;;;62.72;;
76850;SDS011;65824;43.726;20.692;2024-01-15T04:04:26;132.02;;;54.47;;
76850;SDS011;65824;43.726;20.692;2024-01-15T04:06:52;132.35;;;55.28;;
76850;SDS011;65824;43.726;20.692;2024-01-15T04:09:17;123.90;;;51.97;;
76850;SDS011;65824;43.726;20.692;2024-01-15T04:11:43;122.57;;;50.63;;
76850;SDS011;65824;43.726;20.692;2024-01-15T04:14:11;117.15;;;50.58;;
76850;SDS011;65824;43.726;20.692;2024-01-15T04:16:37;106.32;;;47.78;;
76850;SDS011;65824;43.726;20.692;2024-01-15T04:19:02;113.80;;;46.13;;
76850;SDS011;65824;43.726;20.692;2024-01-15T04:21:29;105.85;;;45.25;;
76850;SDS011;65824;43.726;20.692;2024-01-15T04:23:55;100.57;;;45.70;;
76850;SDS011;65824;43.726;20.692;2024-01-15T04:26:20;102.55;;;46.13;;
76850;SDS011;65824;43.726;20.692;2024-01-15T04:28:46;161.10;;;63.20;;
76850;SDS011;65824;43.726;20.692;2024-01-15T04:31:20;159.95;;;65.78;;
76850;SDS011;65824;43.726;20.692;2024-01-15T04:33:48;155.15;;;62.25;;
76850;SDS011;65824;43.726;20.692;2024-01-15T04:36:14;156.07;;;61.55;;
76850;SDS011;65824;43.726;20.692;2024-01-15T04:38:40;169.88;;;68.78;;
76850;SDS011;65824;43.726;20.692;2024-01-15T04:41:05;168.98;;;71.07;;
76850;SDS011;65824;43.726;20.692;2024-01-15T04:43:34;171.20;;;69.68;;
76850;SDS011;65824;43.726;20.692;2024-01-15T04:46:00;167.50;;;66.28;;
76850;SDS011;65824;43.726;20.692;2024-01-15T04:48:26;159.10;;;65.18;;
76850;SDS011;65824;43.726;20.692;2024-01-15T04:50:51;155.10;;;61.42;;
76850;SDS011;65824;43.726;20.692;2024-01-15T04:53:19;145.48;;;59.45;;
76850;SDS011;65824;43.726;20.692;2024-01-15T04:55:44;140.32;;;54.05;;
76850;SDS011;65824;43.726;20.692;2024-01-15T04:58:10;124.63;;;52.70;;
76850;SDS011;65824;43.726;20.692;2024-01-15T05:00:37;135.20;;;56.90;;
76850;SDS011;65824;43.726;20.692;2024-01-15T05:03:02;139.52;;;57.63;;
76850;SDS011;65824;43.726;20.692;2024-01-15T05:05:29;143.55;;;59.30;;
76850;SDS011;65824;43.726;20.692;2024-01-15T05:07:54;136.60;;;56.97;;
76850;SDS011;65824;43.726;20.692;2024-01-15T05:10:20;131.35;;;58.05;;
76850;SDS011;65824;43.726;20.692;2024-01-15T05:12:46;154.73;;;63.03;;
76850;SDS011;65824;43.726;20.692;2024-01-15T05:15:11;148.57;;;64.78;;
76850;SDS011;65824;43.726;20.692;2024-01-15T05:17:37;147.13;;;62.55;;
76850;SDS011;65824;43.726;20.692;2024-01-15T05:20:04;146.52;;;63.70;;
76850;SDS011;65824;43.726;20.692;2024-01-15T05:22:32;159.82;;;69.82;;
76850;SDS011;65824;43.726;20.692;2024-01-15T05:24:57;176.77;;;72.85;;
76850;SDS011;65824;43.726;20.692;2024-01-15T05:27:23;191.73;;;78.72;;
76850;SDS011;65824;43.726;20.692;2024-01-15T05:29:48;201.73;;;79.38;;
76850;SDS011;65824;43.726;20.692;2024-01-15T05:32:14;210.48;;;83.45;;
76850;SDS011;65824;43.726;20.692;2024-01-15T05:34:40;172.00;;;74.75;;
76850;SDS011;65824;43.726;20.692;2024-01-15T05:37:05;174.68;;;76.18;;
76850;SDS011;65824;43.726;20.692;2024-01-15T05:39:32;175.48;;;73.40;;
76850;SDS011;65824;43.726;20.692;2024-01-15T05:41:58;171.10;;;71.97;;
76850;SDS011;65824;43.726;20.692;2024-01-15T05:44:25;180.85;;;72.07;;
76850;SDS011;65824;43.726;20.692;2024-01-15T05:46:51;177.73;;;74.20;;
76850;SDS011;65824;43.726;20.692;2024-01-15T05:49:18;200.70;;;82.43;;
76850;SDS011;65824;43.726;20.692;2024-01-15T05:51:46;177.02;;;77.35;;
76850;SDS011;65824;43.726;20.692;2024-01-15T05:54:11;171.57;;;76.85;;
76850;SDS011;65824;43.726;20.692;2024-01-15T05:56:37;185.63;;;80.35;;
76850;SDS011;65824;43.726;20.692;2024-01-15T05:59:06;170.00;;;77.05;;
76850;SDS011;65824;43.726;20.692;2024-01-15T06:01:34;157.40;;;69.43;;
76850;SDS011;65824;43.726;20.692;2024-01-15T06:03:59;164.85;;;70.75;;
76850;SDS011;65824;43.726;20.692;2024-01-15T06:06:25;132.82;;;58.42;;
76850;SDS011;65824;43.726;20.692;2024-01-15T06:08:50;130.73;;;55.42;;
76850;SDS011;65824;43.726;20.692;2024-01-15T06:11:16;132.80;;;55.88;;
76850;SDS011;65824;43.726;20.692;2024-01-15T06:13:41;121.68;;;55.20;;
76850;SDS011;65824;43.726;20.692;2024-01-15T06:16:13;128.80;;;58.00;;
76850;SDS011;65824;43.726;20.692;2024-01-15T06:18:44;116.85;;;53.50;;
76850;SDS011;65824;43.726;20.692;2024-01-15T06:21:10;119.30;;;54.13;;
76850;SDS011;65824;43.726;20.692;2024-01-15T06:23:37;112.55;;;48.53;;
76850;SDS011;65824;43.726;20.692;2024-01-15T06:26:03;108.13;;;49.15;;
76850;SDS011;65824;43.726;20.692;2024-01-15T06:28:30;108.30;;;46.70;;
76850;SDS011;65824;43.726;20.692;2024-01-15T06:30:57;118.10;;;53.50;;
76850;SDS011;65824;43.726;20.692;2024-01-15T06:33:23;133.98;;;51.58;;
76850;SDS011;65824;43.726;20.692;2024-01-15T06:35:48;119.32;;;53.17;;
76850;SDS011;65824;43.726;20.692;2024-01-15T06:38:14;129.15;;;57.00;;
76850;SDS011;65824;43.726;20.692;2024-01-15T06:40:40;131.85;;;55.13;;
76850;SDS011;65824;43.726;20.692;2024-01-15T06:43:10;124.60;;;54.20;;
76850;SDS011;65824;43.726;20.692;2024-01-15T06:45:36;113.82;;;52.30;;
76850;SDS011;65824;43.726;20.692;2024-01-15T06:48:02;103.85;;;49.40;;
76850;SDS011;65824;43.726;20.692;2024-01-15T06:50:27;100.22;;;46.45;;
76850;SDS011;65824;43.726;20.692;2024-01-15T06:52:53;100.93;;;45.85;;
76850;SDS011;65824;43.726;20.692;2024-01-15T06:55:19;111.55;;;48.90;;
76850;SDS011;65824;43.726;20.692;2024-01-15T06:57:44;114.95;;;49.03;;
76850;SDS011;65824;43.726;20.692;2024-01-15T07:00:11;105.65;;;45.65;;
76850;SDS011;65824;43.726;20.692;2024-01-15T07:02:37;109.97;;;49.58;;
76850;SDS011;65824;43.726;20.692;2024-01-15T07:05:03;109.68;;;47.83;;
76850;SDS011;65824;43.726;20.692;2024-01-15T07:07:30;115.72;;;49.72;;
76850;SDS011;65824;43.726;20.692;2024-01-15T07:09:57;112.10;;;49.53;;
76850;SDS011;65824;43.726;20.692;2024-01-15T07:12:22;101.22;;;47.60;;
76850;SDS011;65824;43.726;20.692;2024-01-15T07:14:49;108.20;;;47.70;;
76850;SDS011;65824;43.726;20.692;2024-01-15T07:17:15;98.82;;;44.28;;
76850;SDS011;65824;43.726;20.692;2024-01-15T07:19:43;99.95;;;41.67;;
76850;SDS011;65824;43.726;20.692;2024-01-15T07:22:08;91.63;;;42.17;;
76850;SDS011;65824;43.726;20.692;2024-01-15T07:24:35;87.22;;;40.90;;
76850;SDS011;65824;43.726;20.692;2024-01-15T07:27:00;91.72;;;40.40;;
76850;SDS011;65824;43.726;20.692;2024-01-15T07:29:26;95.57;;;43.65;;
76850;SDS011;65824;43.726;20.692;2024-01-15T07:31:51;96.30;;;44.03;;
76850;SDS011;65824;43.726;20.692;2024-01-15T07:34:17;100.20;;;46.97;;
76850;SDS011;65824;43.726;20.692;2024-01-15T07:36:46;110.05;;;46.88;;
76850;SDS011;65824;43.726;20.692;2024-01-15T07:39:11;108.18;;;48.17;;
76850;SDS011;65824;43.726;20.692;2024-01-15T07:41:37;114.43;;;47.85;;
76850;SDS011;65824;43.726;20.692;2024-01-15T07:44:03;105.57;;;47.72;;
76850;SDS011;65824;43.726;20.692;2024-01-15T07:46:29;100.53;;;47.30;;
76850;SDS011;65824;43.726;20.692;2024-01-15T07:48:55;108.22;;;49.05;;
76850;SDS011;65824;43.726;20.692;2024-01-15T07:51:23;105.88;;;48.03;;
76850;SDS011;65824;43.726;20.692;2024-01-15T07:53:49;107.65;;;47.80;;
76850;SDS011;65824;43.726;20.692;2024-01-15T07:56:15;115.38;;;49.30;;
76850;SDS011;65824;43.726;20.692;2024-01-15T07:58:42;109.72;;;47.75;;
76850;SDS011;65824;43.726;20.692;2024-01-15T08:01:08;105.40;;;48.65;;
76850;SDS011;65824;43.726;20.692;2024-01-15T08:03:34;115.50;;;50.17;;
76850;SDS011;65824;43.726;20.692;2024-01-15T08:06:01;114.70;;;52.63;;
76850;SDS011;65824;43.726;20.692;2024-01-15T08:08:30;126.78;;;55.47;;
76850;SDS011;65824;43.726;20.692;2024-01-15T08:10:56;132.13;;;58.00;;
76850;SDS011;65824;43.726;20.692;2024-01-15T08:13:22;126.07;;;58.90;;
76850;SDS011;65824;43.726;20.692;2024-01-15T08:15:47;126.18;;;55.33;;
76850;SDS011;65824;43.726;20.692;2024-01-15T08:18:15;135.25;;;58.35;;
76850;SDS011;65824;43.726;20.692;2024-01-15T08:20:41;131.20;;;55.97;;
76850;SDS011;65824;43.726;20.692;2024-01-15T08:23:06;130.32;;;57.05;;
76850;SDS011;65824;43.726;20.692;2024-01-15T08:25:35;138.45;;;59.67;;
76850;SDS011;65824;43.726;20.692;2024-01-15T08:28:00;131.13;;;58.58;;
76850;SDS011;65824;43.726;20.692;2024-01-15T08:30:26;132.80;;;59.60;;
76850;SDS011;65824;43.726;20.692;2024-01-15T08:32:56;129.63;;;54.95;;
76850;SDS011;65824;43.726;20.692;2024-01-15T08:35:22;119.00;;;54.38;;
76850;SDS011;65824;43.726;20.692;2024-01-15T08:37:51;132.05;;;55.45;;
76850;SDS011;65824;43.726;20.692;2024-01-15T08:40:17;130.18;;;54.38;;
76850;SDS011;65824;43.726;20.692;2024-01-15T08:42:42;109.45;;;47.67;;
76850;SDS011;65824;43.726;20.692;2024-01-15T08:45:10;108.03;;;49.53;;
76850;SDS011;65824;43.726;20.692;2024-01-15T08:47:36;99.75;;;44.42;;
76850;SDS011;65824;43.726;20.692;2024-01-15T08:50:03;100.13;;;43.30;;
76850;SDS011;65824;43.726;20.692;2024-01-15T08:52:29;97.38;;;45.33;;
76850;SDS011;65824;43.726;20.692;2024-01-15T08:54:56;95.88;;;42.63;;
76850;SDS011;65824;43.726;20.692;2024-01-15T08:57:22;81.82;;;37.78;;
76850;SDS011;65824;43.726;20.692;2024-01-15T08:59:47;89.63;;;40.70;;
76850;SDS011;65824;43.726;20.692;2024-01-15T09:02:13;97.43;;;43.42;;
76850;SDS011;65824;43.726;20.692;2024-01-15T09:04:38;97.63;;;45.13;;
76850;SDS011;65824;43.726;20.692;2024-01-15T09:07:04;100.07;;;47.08;;
76850;SDS011;65824;43.726;20.692;2024-01-15T09:09:29;120.75;;;52.13;;
76850;SDS011;65824;43.726;20.692;2024-01-15T09:11:55;132.73;;;58.10;;
76850;SDS011;65824;43.726;20.692;2024-01-15T09:14:21;136.25;;;61.60;;
76850;SDS011;65824;43.726;20.692;2024-01-15T09:16:49;144.40;;;66.18;;
76850;SDS011;65824;43.726;20.692;2024-01-15T09:19:16;165.43;;;69.32;;
76850;SDS011;65824;43.726;20.692;2024-01-15T09:21:41;154.30;;;66.82;;
76850;SDS011;65824;43.726;20.692;2024-01-15T09:24:06;154.95;;;68.45;;
76850;SDS011;65824;43.726;20.692;2024-01-15T09:26:33;156.68;;;69.70;;
76850;SDS011;65824;43.726;20.692;2024-01-15T09:28:59;187.23;;;81.78;;
76850;SDS011;65824;43.726;20.692;2024-01-15T09:31:26;179.00;;;82.43;;
76850;SDS011;65824;43.726;20.692;2024-01-15T09:33:52;178.10;;;81.45;;
76850;SDS011;65824;43.726;20.692;2024-01-15T09:36:21;173.60;;;80.75;;
76850;SDS011;65824;43.726;20.692;2024-01-15T09:38:47;182.68;;;86.65;;
76850;SDS011;65824;43.726;20.692;2024-01-15T09:41:13;198.15;;;94.05;;
76850;SDS011;65824;43.726;20.692;2024-01-15T09:43:39;211.13;;;98.38;;
76850;SDS011;65824;43.726;20.692;2024-01-15T09:46:06;213.35;;;102.40;;
76850;SDS011;65824;43.726;20.692;2024-01-15T09:48:31;215.30;;;103.15;;
76850;SDS011;65824;43.726;20.692;2024-01-15T09:50:59;204.45;;;97.95;;
76850;SDS011;65824;43.726;20.692;2024-01-15T09:53:27;174.57;;;82.85;;
76850;SDS011;65824;43.726;20.692;2024-01-15T09:55:53;166.93;;;79.65;;
76850;SDS011;65824;43.726;20.692;2024-01-15T09:58:18;179.15;;;83.70;;
76850;SDS011;65824;43.726;20.692;2024-01-15T10:00:44;192.57;;;90.18;;
76850;SDS011;65824;43.726;20.692;2024-01-15T10:03:10;190.85;;;92.50;;
76850;SDS011;65824;43.726;20.692;2024-01-15T10:05:36;208.07;;;97.80;;
76850;SDS011;65824;43.726;20.692;2024-01-15T10:08:02;204.85;;;96.53;;
76850;SDS011;65824;43.726;20.692;2024-01-15T10:10:28;195.38;;;92.90;;
76850;SDS011;65824;43.726;20.692;2024-01-15T10:12:54;194.98;;;90.80;;
76850;SDS011;65824;43.726;20.692;2024-01-15T10:15:23;193.63;;;89.32;;
76850;SDS011;65824;43.726;20.692;2024-01-15T10:17:49;179.60;;;81.90;;
76850;SDS011;65824;43.726;20.692;2024-01-15T10:20:16;167.93;;;78.18;;
76850;SDS011;65824;43.726;20.692;2024-01-15T10:22:41;175.23;;;77.53;;
76850;SDS011;65824;43.726;20.692;2024-01-15T10:27:40;166.13;;;76.30;;
76850;SDS011;65824;43.726;20.692;2024-01-15T10:30:09;170.05;;;76.53;;
76850;SDS011;65824;43.726;20.692;2024-01-15T10:32:37;174.55;;;80.60;;
76850;SDS011;65824;43.726;20.692;2024-01-15T10:35:03;182.15;;;83.75;;
76850;SDS011;65824;43.726;20.692;2024-01-15T10:37:32;182.70;;;85.50;;
76850;SDS011;65824;43.726;20.692;2024-01-15T10:39:58;158.55;;;75.28;;
76850;SDS011;65824;43.726;20.692;2024-01-15T10:42:32;139.30;;;67.80;;
76850;SDS011;65824;43.726;20.692;2024-01-15T10:44:58;145.93;;;66.57;;
76850;SDS011;65824;43.726;20.692;2024-01-15T10:47:24;144.80;;;65.80;;
76850;SDS011;65824;43.726;20.692;2024-01-15T10:49:49;148.65;;;72.00;;
76850;SDS011;65824;43.726;20.692;2024-01-15T10:52:14;148.63;;;69.95;;
76850;SDS011;65824;43.726;20.692;2024-01-15T10:54:40;143.80;;;68.82;;
76850;SDS011;65824;43.726;20.692;2024-01-15T10:57:06;146.23;;;69.38;;
76850;SDS011;65824;43.726;20.692;2024-01-15T10:59:32;149.98;;;70.70;;
76850;SDS011;65824;43.726;20.692;2024-01-15T11:01:57;152.57;;;69.43;;
76850;SDS011;65824;43.726;20.692;2024-01-15T11:04:24;138.75;;;62.55;;
76850;SDS011;65824;43.726;20.692;2024-01-15T11:06:52;148.95;;;65.72;;
76850;SDS011;65824;43.726;20.692;2024-01-15T11:09:21;143.68;;;67.93;;
76850;SDS011;65824;43.726;20.692;2024-01-15T11:11:46;147.45;;;70.75;;
76850;SDS011;65824;43.726;20.692;2024-01-15T11:16:58;143.02;;;65.53;;
76850;SDS011;65824;43.726;20.692;2024-01-15T11:19:24;149.38;;;64.70;;
76850;SDS011;65824;43.726;20.692;2024-01-15T11:21:50;142.88;;;66.80;;
76850;SDS011;65824;43.726;20.692;2024-01-15T11:27:02;156.02;;;72.63;;
76850;SDS011;65824;43.726;20.692;2024-01-15T11:32:08;163.05;;;77.03;;
76850;SDS011;65824;43.726;20.692;2024-01-15T11:40:49;173.07;;;83.35;;
76850;SDS011;65824;43.726;20.692;2024-01-15T11:43:09;178.75;;;83.07;;
76850;SDS011;65824;43.726;20.692;2024-01-15T11:45:35;183.30;;;86.07;;
76850;SDS011;65824;43.726;20.692;2024-01-15T11:50:46;174.25;;;84.07;;
76850;SDS011;65824;43.726;20.692;2024-01-15T11:53:20;168.13;;;80.53;;
76850;SDS011;65824;43.726;20.692;2024-01-15T11:55:46;176.45;;;80.80;;
76850;SDS011;65824;43.726;20.692;2024-01-15T11:58:14;166.68;;;77.10;;
76850;SDS011;65824;43.726;20.692;2024-01-15T12:00:43;169.63;;;80.70;;
76850;SDS011;65824;43.726;20.692;2024-01-15T12:03:09;165.20;;;77.40;;
76850;SDS011;65824;43.726;20.692;2024-01-15T12:05:36;162.57;;;75.43;;
76850;SDS011;65824;43.726;20.692;2024-01-15T12:08:02;149.85;;;71.85;;
76850;SDS011;65824;43.726;20.692;2024-01-15T12:10:28;154.90;;;71.88;;
76850;SDS011;65824;43.726;20.692;2024-01-15T12:15:39;126.00;;;56.58;;
76850;SDS011;65824;43.726;20.692;2024-01-15T12:18:07;111.05;;;52.15;;
76850;SDS011;65824;43.726;20.692;2024-01-15T12:20:36;105.45;;;48.83;;
76850;SDS011;65824;43.726;20.692;2024-01-15T12:23:02;92.18;;;45.00;;
76850;SDS011;65824;43.726;20.692;2024-01-15T12:25:31;93.38;;;44.63;;
76850;SDS011;65824;43.726;20.692;2024-01-15T12:27:57;92.95;;;42.28;;
76850;SDS011;65824;43.726;20.692;2024-01-15T12:30:25;91.00;;;42.55;;
76850;SDS011;65824;43.726;20.692;2024-01-15T12:32:58;91.45;;;42.88;;
76850;SDS011;65824;43.726;20.692;2024-01-15T12:35:27;84.55;;;40.40;;
76850;SDS011;65824;43.726;20.692;2024-01-15T12:37:54;84.25;;;40.22;;
76850;SDS011;65824;43.726;20.692;2024-01-15T12:40:21;82.68;;;40.70;;
76850;SDS011;65824;43.726;20.692;2024-01-15T12:42:47;92.45;;;40.50;;
76850;SDS011;65824;43.726;20.692;2024-01-15T12:45:13;78.45;;;38.08;;
76850;SDS011;65824;43.726;20.692;2024-01-15T12:47:40;81.80;;;38.22;;
76850;SDS011;65824;43.726;20.692;2024-01-15T12:50:06;82.10;;;37.25;;
76850;SDS011;65824;43.726;20.692;2024-01-15T12:52:33;81.97;;;37.10;;
76850;SDS011;65824;43.726;20.692;2024-01-15T12:54:58;79.75;;;38.33;;
76850;SDS011;65824;43.726;20.692;2024-01-15T12:57:26;85.43;;;39.10;;
76850;SDS011;65824;43.726;20.692;2024-01-15T12:59:54;87.32;;;39.63;;
76850;SDS011;65824;43.726;20.692;2024-01-15T13:02:19;91.05;;;41.45;;
76850;SDS011;65824;43.726;20.692;2024-01-15T13:04:45;97.55;;;42.53;;
76850;SDS011;65824;43.726;20.692;2024-01-15T13:07:10;93.18;;;41.40;;
76850;SDS011;65824;43.726;20.692;2024-01-15T13:09:37;94.57;;;40.30;;
76850;SDS011;65824;43.726;20.692;2024-01-15T13:12:02;91.15;;;40.60;;
76850;SDS011;65824;43.726;20.692;2024-01-15T13:14:28;80.35;;;38.80;;
76850;SDS011;65824;43.726;20.692;2024-01-15T13:16:54;91.53;;;41.35;;
76850;SDS011;65824;43.726;20.692;2024-01-15T13:19:23;100.63;;;46.47;;
76850;SDS011;65824;43.726;20.692;2024-01-15T13:21:49;102.15;;;48.65;;
76850;SDS011;65824;43.726;20.692;2024-01-15T13:24:16;105.70;;;50.83;;
76850;SDS011;65824;43.726;20.692;2024-01-15T13:26:43;122.68;;;55.15;;
76850;SDS011;65824;43.726;20.692;2024-01-15T13:29:08;128.30;;;57.20;;
76850;SDS011;65824;43.726;20.692;2024-01-15T13:31:34;125.78;;;56.58;;
76850;SDS011;65824;43.726;20.692;2024-01-15T13:33:59;127.25;;;56.45;;
76850;SDS011;65824;43.726;20.692;2024-01-15T13:36:25;134.63;;;60.65;;
76850;SDS011;65824;43.726;20.692;2024-01-15T13:38:52;128.90;;;57.13;;
76850;SDS011;65824;43.726;20.692;2024-01-15T13:41:21;124.85;;;57.25;;
76850;SDS011;65824;43.726;20.692;2024-01-15T13:43:50;119.75;;;51.95;;
76850;SDS011;65824;43.726;20.692;2024-01-15T13:46:17;107.55;;;50.05;;
76850;SDS011;65824;43.726;20.692;2024-01-15T13:48:43;99.18;;;47.85;;
76850;SDS011;65824;43.726;20.692;2024-01-15T13:51:10;102.10;;;46.05;;
76850;SDS011;65824;43.726;20.692;2024-01-15T13:53:37;99.57;;;45.83;;
76850;SDS011;65824;43.726;20.692;2024-01-15T13:56:03;102.55;;;45.20;;
76850;SDS011;65824;43.726;20.692;2024-01-15T13:58:29;98.30;;;45.75;;
76850;SDS011;65824;43.726;20.692;2024-01-15T14:00:57;102.68;;;44.50;;
76850;SDS011;65824;43.726;20.692;2024-01-15T14:03:23;96.97;;;42.45;;
76850;SDS011;65824;43.726;20.692;2024-01-15T14:05:49;88.88;;;43.42;;
76850;SDS011;65824;43.726;20.692;2024-01-15T14:08:16;96.93;;;47.17;;
76850;SDS011;65824;43.726;20.692;2024-01-15T14:10:42;105.00;;;49.92;;
76850;SDS011;65824;43.726;20.692;2024-01-15T14:13:08;113.78;;;51.42;;